LATI

Tirana International Mother Teresa Airport

Tirana, Albania
TAF LATI 230500Z 2306/2406 18010KT 9999 -RA SCT030 BKN050 OVC070 TEMPO 2307/2310 RA BECMG 2310/2313 VRB05KT NSW TEMPO 2318/2406 -SHRA FEW030CB BKN060
Issued Valid From Valid To
Jan-23 @ 05:00 UTC
(3 hours ago)
Jan-23 @ 06:00 UTC
(2 hours ago)
Jan-24 @ 06:00 UTC
(in 22 hours)
Jan-23 @ 06:00 to Jan-23 @ 10:00
TAF LATI 230500Z 2306/2406 18010KT 9999 -RA SCT030 BKN050 OVC070
Wind Visibility Clouds Conditions
180° at 10 knots 10,000+ meters
  • Scattered at 3,000' AGL
  • Broken at 5,000' AGL
  • Overcast at 7,000' AGL
  • Light Rain
Temporary Jan-23 @ 07:00 to Jan-23 @ 10:00
TEMPO 2307/2310 RA
Conditions
  • Rain
Becoming Jan-23 @ 10:00 to Jan-24 @ 06:00
BECMG 2310/2313 VRB05KT NSW
Wind Visibility Clouds Conditions
Variable at 5 knots 10,000+ meters
  • Scattered at 3,000' AGL
  • Broken at 5,000' AGL
  • Overcast at 7,000' AGL
Temporary Jan-23 @ 18:00 to Jan-24 @ 06:00
TEMPO 2318/2406 -SHRA FEW030CB BKN060
Clouds Conditions
  • Few at 3,000' AGL
  • Broken at 6,000' AGL
  • Light Rain
TAF LATI 230500Z 2306/2406 18010KT 9999 -RA SCT030 BKN050 OVC070 TEMPO 2307/2310 RA BECMG 2310/2313 VRB05KT NSW TEMPO 2318/2406 -SHRA FEW030CB BKN060
Issued Jan-23 @ 05:00 UTC
(3 hours ago)
Valid From Jan-23 @ 06:00 UTC
(2 hours ago)
Valid To Jan-24 @ 06:00 UTC
(in 22 hours)
Jan-23 @ 06:00 - Jan-23 @ 10:00
Wind Visibility
180° at 10 knots 10,000+ meters
Clouds
  • Scattered at 3,000' AGL
  • Broken at 5,000' AGL
  • Overcast at 7,000' AGL
Conditions
  • Light Rain
Temporary Jan-23 @ 07:00 - Jan-23 @ 10:00
Conditions
  • Rain
Becoming Jan-23 @ 10:00 - Jan-24 @ 06:00
Wind Visibility
Variable at 5 knots 10,000+ meters
Clouds
  • Scattered at 3,000' AGL
  • Broken at 5,000' AGL
  • Overcast at 7,000' AGL
Conditions
Temporary Jan-23 @ 18:00 - Jan-24 @ 06:00
Clouds
  • Few at 3,000' AGL
  • Broken at 6,000' AGL
Conditions
  • Light Rain